KHLR

Details ICAO KHLR (HLR)
Name Hood AAF
Region United States
Timezone America/Chicago (UTC-6.0)
Plans Departing 3
Arriving 0
Stats Elevation 924 ft / 282 m (AMSL)
Location 31.137950° -97.714209°
Runways 2
Magnetic Variation 3.835° E
Sunrise 2017-12-14 13:22:49 UTC / 2017-12-14 07:22:49 Local
Sunset 2017-12-14 23:31:18 UTC / 2017-12-14 17:31:18 Local
Advertisement - Login to hide

Runways

ID Width Length Bearing (true) Bearing (mag) Surface Threshold Offset Overrun Length
15 144 ft / 44 m 4,724 ft / 1,440 m 163.57° 159.73° Asphalt 565 ft / 172 m 0 ft / 0 m
16 144 ft / 44 m 3,814 ft / 1,162 m 163.57° 159.73° Asphalt 560 ft / 171 m 0 ft / 0 m
33 144 ft / 44 m 4,724 ft / 1,440 m 343.57° 339.73° Asphalt 1,045 ft / 319 m 0 ft / 0 m
34 144 ft / 44 m 3,814 ft / 1,162 m 343.57° 339.73° Asphalt 0 ft / 0 m 0 ft / 0 m

Map

Weather


0- 5 10 15 20 25 30 35+ Temperature / ° C

Clouds and Precipitation
Forecast for 2017-12-15 06:00 UTC. Updated 2 hours ago

Ground ~20,000 ft ~40,000 ft Winds

METAR

KHLR 150358Z AUTO 01011KT 10SM CLR 09/M02 A3014 RMK AO2 SLP206 T00941024

TAF

Not found

Frequencies

Ground 133.85 MHz GND
Approach 120.07 MHz GRAY APP/DEP
Tower 119.65 MHz TWR
Warning: Do not use this data for real-world aviation or navigation. No guarantee of current accuracy is given.